Time;durP1;ratioP1;P1;durP2;ratioP2;P2;SDS_P1;SDS_P2;PMS_P1;PMS_P2;Temp;Humidity;BMP_temperature;BMP_pressure;BME280_temperature;BME280_humidity;BME280_pressure;Samples;Min_cycle;Max_cycle;Signal;HPM_P1;HPM_P2
2022/01/05 00:00:08;;;;;;;4.27;1.50;;;2.80;99.90;;;;;;4972608;28;20483;-63
2022/01/05 00:02:40;;;;;;;8.30;1.50;;;2.80;99.90;;;;;;4953734;28;20899;-63
2022/01/05 00:05:11;;;;;;;7.93;1.73;;;2.80;99.90;;;;;;4950305;28;20473;-64
2022/01/05 00:07:39;;;;;;;7.17;2.07;;;2.80;99.90;;;;;;4953998;28;22330;-63
2022/01/05 00:10:07;;;;;;;7.90;1.80;;;2.80;99.90;;;;;;4960763;28;20550;-63
2022/01/05 00:12:35;;;;;;;8.43;1.50;;;2.80;99.90;;;;;;4953303;28;20489;-63
2022/01/05 00:15:04;;;;;;;7.07;1.60;;;2.80;99.90;;;;;;4953869;28;20542;-63
2022/01/05 00:17:32;;;;;;;5.67;2.03;;;2.80;99.90;;;;;;4956065;28;20904;-63
2022/01/05 00:20:01;;;;;;;8.30;1.43;;;2.80;99.90;;;;;;4972341;28;20489;-63
2022/01/05 00:22:30;;;;;;;12.23;2.00;;;2.80;99.90;;;;;;4964258;28;20484;-63
2022/01/05 00:24:58;;;;;;;5.57;1.80;;;2.80;99.90;;;;;;4972992;28;20863;-63
2022/01/05 00:27:26;;;;;;;8.50;1.70;;;2.80;99.90;;;;;;4972454;28;20852;-63
2022/01/05 00:29:54;;;;;;;8.00;1.97;;;2.80;99.90;;;;;;4972372;28;20487;-63
2022/01/05 00:32:23;;;;;;;6.73;1.50;;;2.80;99.90;;;;;;4971119;28;20480;-63
2022/01/05 00:34:52;;;;;;;5.83;1.70;;;2.80;99.90;;;;;;4953484;28;20555;-63
2022/01/05 00:37:21;;;;;;;5.80;1.83;;;2.80;99.90;;;;;;4958622;28;20500;-63
2022/01/05 00:39:50;;;;;;;9.53;2.00;;;2.80;99.90;;;;;;4953393;28;20476;-63
2022/01/05 00:42:18;;;;;;;7.53;2.17;;;2.80;99.90;;;;;;4978816;28;20477;-63
2022/01/05 00:44:46;;;;;;;8.17;1.80;;;2.80;99.90;;;;;;4972722;28;21047;-63
2022/01/05 00:47:15;;;;;;;8.20;2.13;;;2.70;99.90;;;;;;4957434;28;20986;-63
2022/01/05 00:49:44;;;;;;;5.03;1.87;;;2.70;99.90;;;;;;4991724;28;20478;-63
2022/01/05 00:52:12;;;;;;;7.03;1.87;;;2.70;99.90;;;;;;4988400;28;20542;-63
2022/01/05 00:54:41;;;;;;;6.07;1.77;;;2.70;99.90;;;;;;4953371;28;20494;-63
2022/01/05 00:57:10;;;;;;;10.47;2.20;;;2.80;99.90;;;;;;4971641;28;20479;-63
2022/01/05 00:59:38;;;;;;;9.37;1.97;;;2.70;99.90;;;;;;4964344;28;20811;-63
2022/01/05 01:02:07;;;;;;;4.73;1.93;;;2.70;99.90;;;;;;4972140;28;20468;-63
2022/01/05 01:04:46;;;;;;;10.98;2.35;;;2.70;99.90;;;;;;1666879;28;10022864;-63
2022/01/05 01:07:15;;;;;;;6.80;2.20;;;2.60;99.90;;;;;;4628915;28;10001149;-63
2022/01/05 01:09:43;;;;;;;9.03;2.30;;;2.70;99.90;;;;;;4976830;28;20469;-64
2022/01/05 01:12:13;;;;;;;6.37;2.20;;;2.60;99.90;;;;;;4988204;28;20506;-63
2022/01/05 01:14:41;;;;;;;7.50;2.17;;;2.70;99.90;;;;;;4952719;28;20477;-63
2022/01/05 01:17:09;;;;;;;6.73;2.30;;;2.70;99.90;;;;;;4962729;28;20476;-63
2022/01/05 01:19:37;;;;;;;9.97;2.20;;;2.70;99.90;;;;;;4952474;28;20884;-63
2022/01/05 01:22:06;;;;;;;11.17;2.40;;;2.60;99.90;;;;;;4952567;28;20483;-63
2022/01/05 01:24:34;;;;;;;10.70;2.17;;;2.60;99.90;;;;;;4963630;28;20786;-63
2022/01/05 01:27:03;;;;;;;7.33;2.37;;;2.60;99.90;;;;;;4966389;28;20487;-63
2022/01/05 01:29:32;;;;;;;4.63;1.50;;;2.60;99.90;;;;;;4961094;28;20865;-63
2022/01/05 01:32:01;;;;;;;5.17;2.07;;;2.60;99.90;;;;;;4953948;28;20854;-64
2022/01/05 01:34:29;;;;;;;6.97;1.87;;;2.60;99.90;;;;;;4959489;28;20492;-63
2022/01/05 01:36:57;;;;;;;9.53;2.57;;;2.60;99.90;;;;;;4965295;28;20570;-63
2022/01/05 01:39:25;;;;;;;6.83;1.90;;;2.60;99.90;;;;;;4963309;28;20583;-63
2022/01/05 01:41:53;;;;;;;10.43;1.93;;;2.60;99.90;;;;;;4948211;28;20493;-63
2022/01/05 01:44:22;;;;;;;8.37;2.20;;;2.60;99.90;;;;;;4963129;28;20519;-63
2022/01/05 01:46:53;;;;;;;9.47;2.10;;;2.60;99.90;;;;;;4951658;28;20572;-63
2022/01/05 01:49:21;;;;;;;6.80;2.43;;;2.50;99.90;;;;;;4959035;28;20521;-64
2022/01/05 01:51:49;;;;;;;8.13;1.80;;;2.60;99.90;;;;;;4963866;28;20480;-63
2022/01/05 01:54:18;;;;;;;7.93;2.07;;;2.60;99.90;;;;;;4956431;28;20581;-63
2022/01/05 01:56:48;;;;;;;6.70;1.60;;;2.50;99.90;;;;;;4969973;28;20691;-64
2022/01/05 01:59:16;;;;;;;6.37;1.63;;;2.60;99.90;;;;;;4954852;28;20482;-63
2022/01/05 02:01:44;;;;;;;7.87;2.00;;;2.50;99.90;;;;;;4963869;28;20507;-64
2022/01/05 02:04:15;;;;;;;8.47;1.57;;;2.50;99.90;;;;;;4937176;29;20981;-63
2022/01/05 02:06:43;;;;;;;6.07;1.73;;;2.50;99.90;;;;;;4955995;28;20484;-63
2022/01/05 02:09:11;;;;;;;7.00;1.70;;;2.50;99.90;;;;;;4979863;28;20527;-63
2022/01/05 02:11:40;;;;;;;11.10;2.30;;;2.50;99.90;;;;;;4972002;28;20556;-63
2022/01/05 02:14:08;;;;;;;9.93;1.90;;;2.50;99.90;;;;;;4971431;28;20975;-64
2022/01/05 02:16:41;;;;;;;7.97;1.70;;;2.50;99.90;;;;;;4975178;28;20824;-63
2022/01/05 02:19:09;;;;;;;7.37;1.63;;;2.50;99.90;;;;;;4971188;28;20856;-63
2022/01/05 02:21:40;;;;;;;7.97;1.57;;;2.50;99.90;;;;;;4936398;28;20488;-63
2022/01/05 02:24:09;;;;;;;10.53;1.73;;;2.50;99.90;;;;;;4975091;28;20995;-63
2022/01/05 02:26:38;;;;;;;7.30;1.77;;;2.50;99.90;;;;;;4975073;28;20467;-63
2022/01/05 02:29:07;;;;;;;7.57;1.83;;;2.40;99.90;;;;;;4974407;28;20547;-63
2022/01/05 02:31:35;;;;;;;6.73;1.40;;;2.40;99.90;;;;;;4959575;28;20799;-63
2022/01/05 02:34:04;;;;;;;12.37;1.80;;;2.40;99.90;;;;;;4954419;28;20505;-63
2022/01/05 02:36:32;;;;;;;10.53;1.80;;;2.40;99.90;;;;;;4954059;28;20482;-63
2022/01/05 02:39:02;;;;;;;4.20;1.30;;;2.40;99.90;;;;;;4940061;29;20545;-63
2022/01/05 02:41:30;;;;;;;6.63;1.90;;;2.50;99.90;;;;;;4936392;28;20858;-63
2022/01/05 02:43:58;;;;;;;8.10;1.50;;;2.40;99.90;;;;;;4955031;28;20877;-63
2022/01/05 02:46:26;;;;;;;8.43;1.17;;;2.40;99.90;;;;;;4954339;28;20477;-63
2022/01/05 02:48:56;;;;;;;7.50;1.43;;;2.40;99.90;;;;;;4955386;28;21001;-63
2022/01/05 02:51:24;;;;;;;10.47;1.90;;;2.50;99.90;;;;;;4955443;28;20704;-63
2022/01/05 02:53:52;;;;;;;6.50;1.30;;;2.40;99.90;;;;;;4955317;28;20531;-63
2022/01/05 02:56:21;;;;;;;7.13;1.67;;;2.40;99.90;;;;;;4952871;28;20496;-63
2022/01/05 02:58:49;;;;;;;15.50;1.60;;;2.50;99.90;;;;;;4947991;28;21010;-63
2022/01/05 03:01:18;;;;;;;10.17;1.60;;;2.40;99.90;;;;;;4937006;28;20996;-63
2022/01/05 03:03:54;;;;;;;7.15;1.99;;;2.50;99.90;;;;;;3757455;28;10024465;-63
2022/01/05 03:06:22;;;;;;;5.80;1.42;;;2.50;99.90;;;;;;2397310;28;10001999;-63
2022/01/05 03:08:51;;;;;;;9.10;1.70;;;2.40;99.90;;;;;;4954166;28;20243;-63
2022/01/05 03:11:20;;;;;;;6.30;1.43;;;2.40;99.90;;;;;;4974312;28;20494;-63
2022/01/05 03:13:50;;;;;;;6.50;1.70;;;2.40;99.90;;;;;;4974266;28;20486;-63
2022/01/05 03:16:18;;;;;;;7.90;1.07;;;2.30;99.90;;;;;;4972920;28;20575;-63
2022/01/05 03:18:46;;;;;;;5.70;1.50;;;2.40;99.90;;;;;;4963986;28;20490;-63
2022/01/05 03:21:14;;;;;;;12.27;1.67;;;2.30;99.90;;;;;;4974373;28;20476;-63
2022/01/05 03:23:45;;;;;;;11.13;2.33;;;2.40;99.90;;;;;;4974066;28;21062;-63
2022/01/05 03:26:13;;;;;;;10.23;1.40;;;2.40;99.90;;;;;;4973633;28;20480;-63
2022/01/05 03:28:43;;;;;;;10.77;1.73;;;2.40;99.90;;;;;;4973696;28;20471;-64
2022/01/05 03:31:11;;;;;;;9.13;1.63;;;2.30;99.90;;;;;;4949589;28;20589;-63
2022/01/05 03:33:39;;;;;;;10.27;1.83;;;2.40;99.90;;;;;;4941974;28;22470;-63
2022/01/05 03:36:07;;;;;;;7.80;1.83;;;2.40;99.90;;;;;;4955835;28;20994;-63
2022/01/05 03:38:35;;;;;;;11.03;2.03;;;2.40;99.90;;;;;;4957090;28;20596;-63
2022/01/05 03:41:03;;;;;;;5.67;1.47;;;2.40;99.90;;;;;;4954702;28;23210;-63
2022/01/05 03:43:32;;;;;;;6.40;1.70;;;2.40;99.90;;;;;;4967711;28;20499;-63
2022/01/05 03:46:01;;;;;;;5.77;1.30;;;2.40;99.90;;;;;;4973106;28;20482;-63
2022/01/05 03:48:29;;;;;;;10.53;1.60;;;2.40;99.90;;;;;;4962834;28;20489;-63
2022/01/05 03:50:57;;;;;;;6.93;1.33;;;2.40;99.90;;;;;;4954462;28;21135;-63
2022/01/05 03:53:26;;;;;;;9.53;1.60;;;2.40;99.90;;;;;;4967649;28;20469;-63
2022/01/05 03:55:54;;;;;;;7.10;1.60;;;2.50;99.90;;;;;;4967462;28;20499;-63
2022/01/05 03:58:22;;;;;;;6.07;1.40;;;2.40;99.90;;;;;;4961783;28;20992;-63
2022/01/05 04:00:52;;;;;;;9.03;2.27;;;2.50;99.90;;;;;;4954241;28;20474;-63
2022/01/05 04:03:22;;;;;;;13.83;1.50;;;2.50;99.90;;;;;;4966786;28;20575;-63
2022/01/05 04:05:50;;;;;;;11.27;2.20;;;2.50;99.90;;;;;;4972906;28;20470;-63
2022/01/05 04:08:18;;;;;;;11.80;1.80;;;2.50;99.90;;;;;;4963840;28;21015;-63
2022/01/05 04:10:46;;;;;;;10.03;1.97;;;2.50;99.90;;;;;;4953840;28;20982;-63
2022/01/05 04:13:15;;;;;;;7.70;1.77;;;2.50;99.90;;;;;;4965869;28;20481;-63
2022/01/05 04:15:45;;;;;;;10.30;1.60;;;2.50;99.90;;;;;;4971869;28;20559;-63
2022/01/05 04:18:13;;;;;;;6.97;1.33;;;2.60;99.90;;;;;;4964996;28;20550;-64
2022/01/05 04:20:43;;;;;;;9.77;1.53;;;2.60;99.90;;;;;;4953759;28;20507;-63
2022/01/05 04:23:11;;;;;;;9.33;1.90;;;2.60;99.90;;;;;;4964711;28;20972;-63
2022/01/05 04:25:39;;;;;;;7.00;1.70;;;2.60;99.90;;;;;;4965136;28;20515;-63
2022/01/05 04:28:07;;;;;;;10.03;1.90;;;2.70;99.90;;;;;;4968723;28;20513;-63
2022/01/05 04:30:35;;;;;;;11.23;2.00;;;2.70;99.90;;;;;;4972705;28;20429;-63
2022/01/05 04:33:03;;;;;;;6.97;1.20;;;2.70;99.90;;;;;;4972600;28;20243;-63
2022/01/05 04:35:55;;;;;;;11.17;1.97;;;2.70;99.90;;;;;;4966336;28;20502;-63
2022/01/05 04:38:23;;;;;;;9.67;2.17;;;2.60;99.90;;;;;;4969502;28;20486;-63
2022/01/05 04:40:51;;;;;;;9.53;1.87;;;2.60;99.90;;;;;;4972765;28;20508;-63
2022/01/05 04:43:19;;;;;;;11.67;1.80;;;2.70;99.90;;;;;;4971761;28;20479;-63
2022/01/05 04:45:48;;;;;;;8.93;1.90;;;2.70;99.90;;;;;;4964411;28;20502;-63
2022/01/05 04:48:16;;;;;;;11.90;2.03;;;2.80;99.90;;;;;;4972499;28;20479;-63
2022/01/05 04:50:44;;;;;;;11.37;2.07;;;2.80;99.90;;;;;;4972564;28;20507;-64
2022/01/05 04:53:14;;;;;;;9.63;1.83;;;2.80;99.90;;;;;;4967111;28;20538;-63
2022/01/05 04:55:43;;;;;;;7.07;1.40;;;2.90;99.90;;;;;;4953141;28;20550;-63
2022/01/05 04:58:11;;;;;;;5.80;1.67;;;2.90;99.90;;;;;;4966886;28;20483;-63
2022/01/05 05:00:39;;;;;;;8.27;1.70;;;2.90;99.90;;;;;;4972377;28;20467;-63
2022/01/05 05:03:08;;;;;;;8.20;2.00;;;2.90;99.90;;;;;;4964049;28;20481;-63
2022/01/05 05:05:50;;;;;;;6.42;1.38;;;3.00;99.90;;;;;;3143877;28;10002790;-63
2022/01/05 05:08:19;;;;;;;10.82;1.98;;;3.00;99.90;;;;;;3256109;28;10001746;-62
2022/01/05 05:10:47;;;;;;;10.73;1.97;;;3.00;99.90;;;;;;4972099;28;20255;-63
2022/01/05 05:13:16;;;;;;;12.80;2.13;;;3.00;99.90;;;;;;4971681;28;20519;-63
2022/01/05 05:15:44;;;;;;;9.47;1.77;;;3.00;99.90;;;;;;4971525;28;20471;-63
2022/01/05 05:18:12;;;;;;;10.87;1.77;;;3.00;99.90;;;;;;4972188;28;20467;-63
2022/01/05 05:20:40;;;;;;;9.27;2.10;;;3.10;99.90;;;;;;4971017;28;20494;-63
2022/01/05 05:23:08;;;;;;;10.47;1.93;;;3.00;99.90;;;;;;4970345;28;20482;-63
2022/01/05 05:25:38;;;;;;;9.97;1.90;;;3.00;99.90;;;;;;4981277;28;20472;-63
2022/01/05 05:28:06;;;;;;;11.23;2.00;;;3.00;99.90;;;;;;4980469;28;20497;-63
2022/01/05 05:30:35;;;;;;;8.67;1.80;;;3.00;99.90;;;;;;4971812;28;21032;-63
2022/01/05 05:33:03;;;;;;;10.33;2.00;;;3.00;99.90;;;;;;4973593;28;20537;-63
2022/01/05 05:35:32;;;;;;;10.00;2.13;;;3.00;99.90;;;;;;4958483;28;20497;-63
2022/01/05 05:38:00;;;;;;;12.87;1.93;;;3.00;99.90;;;;;;4979381;28;20482;-63
2022/01/05 05:40:28;;;;;;;11.20;2.27;;;3.00;99.90;;;;;;4971782;28;20479;-62
2022/01/05 05:42:58;;;;;;;8.40;2.00;;;3.00;99.90;;;;;;4969724;28;20478;-63
2022/01/05 05:45:27;;;;;;;9.03;1.90;;;3.00;99.90;;;;;;4942289;28;20483;-63
2022/01/05 05:47:55;;;;;;;12.33;3.00;;;3.00;99.90;;;;;;4942744;28;20512;-63
2022/01/05 05:50:24;;;;;;;13.07;2.43;;;3.00;99.90;;;;;;4952519;28;20484;-62
2022/01/05 05:52:52;;;;;;;12.80;2.73;;;3.00;99.90;;;;;;4953242;28;20540;-63
2022/01/05 05:55:20;;;;;;;6.60;1.50;;;3.10;99.90;;;;;;4981351;28;20565;-63
2022/01/05 05:57:48;;;;;;;7.33;1.63;;;3.10;99.90;;;;;;4980953;28;20488;-63
2022/01/05 06:00:18;;;;;;;6.97;1.77;;;3.00;99.90;;;;;;4971804;28;20471;-64
2022/01/05 06:02:47;;;;;;;9.10;2.00;;;3.10;99.90;;;;;;4966709;28;20576;-64
2022/01/05 06:05:15;;;;;;;7.47;1.80;;;3.10;99.90;;;;;;4966564;28;20540;-63
2022/01/05 06:07:43;;;;;;;8.80;1.80;;;3.10;99.90;;;;;;4971304;28;20481;-63
2022/01/05 06:10:12;;;;;;;7.20;1.87;;;3.10;99.90;;;;;;4952927;28;20479;-63
2022/01/05 06:12:40;;;;;;;8.67;1.60;;;3.10;99.90;;;;;;4943412;28;21009;-63
2022/01/05 06:15:09;;;;;;;10.83;1.77;;;3.10;99.90;;;;;;4963494;28;20502;-63
2022/01/05 06:17:39;;;;;;;9.17;2.10;;;3.10;99.90;;;;;;4977671;28;20822;-63
2022/01/05 06:20:10;;;;;;;10.37;2.33;;;3.10;99.90;;;;;;4971458;28;20478;-62
2022/01/05 06:22:40;;;;;;;10.43;1.80;;;3.10;99.90;;;;;;4970051;28;21516;-63
2022/01/05 06:25:10;;;;;;;13.37;2.40;;;3.10;99.90;;;;;;4952236;28;20821;-63
2022/01/05 06:27:38;;;;;;;10.17;2.00;;;3.20;99.90;;;;;;4944005;28;20514;-62
2022/01/05 06:30:09;;;;;;;10.97;2.13;;;3.20;99.90;;;;;;4945166;28;20489;-62
2022/01/05 06:32:44;;;;;;;12.57;2.43;;;3.20;99.90;;;;;;4948993;28;20835;-63
2022/01/05 06:35:14;;;;;;;12.93;2.60;;;3.30;99.90;;;;;;4985723;28;20490;-63
2022/01/05 06:37:42;;;;;;;11.47;2.60;;;3.20;99.90;;;;;;4959434;28;20476;-62
2022/01/05 06:40:12;;;;;;;12.80;2.23;;;3.20;99.90;;;;;;4955864;28;20484;-63
2022/01/05 06:42:40;;;;;;;10.70;1.77;;;3.30;99.90;;;;;;4954387;28;20546;-62
2022/01/05 06:45:10;;;;;;;12.30;2.80;;;3.30;99.90;;;;;;4947618;28;20477;-63
2022/01/05 06:47:38;;;;;;;12.60;2.80;;;3.30;99.90;;;;;;4942506;28;20468;-63
2022/01/05 06:50:09;;;;;;;12.13;2.20;;;3.30;99.90;;;;;;4948080;28;20457;-62
2022/01/05 06:52:37;;;;;;;13.07;2.70;;;3.30;99.90;;;;;;4946175;28;20467;-63
2022/01/05 06:55:07;;;;;;;9.37;2.17;;;3.30;99.90;;;;;;4954367;28;20483;-63
2022/01/05 06:57:36;;;;;;;10.47;2.00;;;3.30;99.90;;;;;;4954757;28;20471;-62
2022/01/05 07:00:05;;;;;;;6.17;1.53;;;3.40;99.90;;;;;;4954649;28;20494;-64
2022/01/05 07:02:34;;;;;;;11.10;1.93;;;3.30;99.90;;;;;;4949883;28;20502;-63
2022/01/05 07:05:16;;;;;;;9.50;2.20;;;3.40;99.90;;;;;;4255084;28;10001298;-63
2022/01/05 07:07:44;;;;;;;9.98;1.83;;;3.30;99.90;;;;;;2055876;28;10001964;-63
2022/01/05 07:10:13;;;;;;;13.60;1.93;;;3.30;99.90;;;;;;4979764;28;20236;-63
2022/01/05 07:12:49;;;;;;;10.83;2.13;;;3.30;99.90;;;;;;4974538;28;20484;-63
2022/01/05 07:15:17;;;;;;;12.10;2.10;;;3.30;99.90;;;;;;4974176;28;20858;-63
2022/01/05 07:17:46;;;;;;;10.53;1.97;;;3.30;99.90;;;;;;4974490;28;20562;-63
2022/01/05 07:20:16;;;;;;;11.60;2.10;;;3.30;99.90;;;;;;4973357;28;20569;-63
2022/01/05 07:22:45;;;;;;;10.63;2.20;;;3.30;99.90;;;;;;4960025;28;20896;-63
2022/01/05 07:25:14;;;;;;;10.27;1.93;;;3.30;99.90;;;;;;4974286;28;20984;-63
2022/01/05 07:27:42;;;;;;;12.90;2.13;;;3.30;99.90;;;;;;4961412;28;20481;-62
2022/01/05 07:30:12;;;;;;;14.40;2.40;;;3.30;99.90;;;;;;4961632;28;20500;-63
2022/01/05 07:32:41;;;;;;;16.73;2.43;;;3.30;99.90;;;;;;4961418;28;20571;-63
2022/01/05 07:35:09;;;;;;;10.73;2.77;;;3.30;99.90;;;;;;4960757;28;20838;-63
2022/01/05 07:37:39;;;;;;;11.40;2.00;;;3.40;99.90;;;;;;4970241;28;20500;-63
2022/01/05 07:40:09;;;;;;;11.37;2.10;;;3.40;99.90;;;;;;4971765;28;20468;-62
2022/01/05 07:42:38;;;;;;;12.77;2.40;;;3.40;99.90;;;;;;4969074;28;20481;-62
2022/01/05 07:45:09;;;;;;;8.67;2.23;;;3.40;99.90;;;;;;4961371;28;20478;-63
2022/01/05 07:47:38;;;;;;;12.60;2.07;;;3.40;99.90;;;;;;4972306;28;20466;-62
2022/01/05 07:50:11;;;;;;;10.10;2.03;;;3.40;99.90;;;;;;4973527;28;20472;-62
2022/01/05 07:52:41;;;;;;;10.40;2.50;;;3.50;99.90;;;;;;4973312;28;20469;-62
2022/01/05 07:55:10;;;;;;;11.20;2.67;;;3.50;99.90;;;;;;4973544;28;20470;-62
2022/01/05 07:57:38;;;;;;;11.53;2.67;;;3.40;99.90;;;;;;4973269;28;20520;-62
2022/01/05 08:00:08;;;;;;;12.33;2.37;;;3.50;99.90;;;;;;4973176;28;20476;-62
2022/01/05 08:02:36;;;;;;;11.17;2.30;;;3.40;99.90;;;;;;4972070;28;20974;-63
2022/01/05 08:05:07;;;;;;;8.80;2.63;;;3.40;99.90;;;;;;4972255;28;20476;-63
2022/01/05 08:07:36;;;;;;;10.67;2.43;;;3.40;99.90;;;;;;4971672;28;20570;-62
2022/01/05 08:10:06;;;;;;;10.63;1.93;;;3.40;99.90;;;;;;4972693;28;20563;-63
2022/01/05 08:12:35;;;;;;;14.33;2.10;;;3.50;99.90;;;;;;4972462;28;21062;-62
2022/01/05 08:15:03;;;;;;;8.50;2.00;;;3.50;99.90;;;;;;4972600;28;20835;-63
2022/01/05 08:17:31;;;;;;;8.50;1.83;;;3.50;99.90;;;;;;4972272;28;20476;-62
2022/01/05 08:20:01;;;;;;;7.73;1.97;;;3.50;99.90;;;;;;4972649;28;20549;-63
2022/01/05 08:22:29;;;;;;;8.73;2.03;;;3.50;99.90;;;;;;4971001;28;20471;-62
2022/01/05 08:24:57;;;;;;;11.70;2.27;;;3.50;99.90;;;;;;4972599;28;21059;-63
2022/01/05 08:27:26;;;;;;;7.07;2.17;;;3.50;99.90;;;;;;4968193;28;20481;-62
2022/01/05 08:29:54;;;;;;;11.03;1.90;;;3.50;99.90;;;;;;4966124;28;20474;-63
2022/01/05 08:32:23;;;;;;;9.23;2.13;;;3.60;99.90;;;;;;4969703;28;20950;-62
2022/01/05 08:34:51;;;;;;;7.93;2.00;;;3.60;99.90;;;;;;4966471;28;21052;-62
2022/01/05 08:37:19;;;;;;;11.27;2.07;;;3.60;99.90;;;;;;4959471;28;20578;-62
2022/01/05 08:39:50;;;;;;;10.93;2.00;;;3.60;99.90;;;;;;4946349;28;20463;-63
2022/01/05 08:42:19;;;;;;;11.60;2.10;;;3.60;99.90;;;;;;4946719;28;20481;-62
2022/01/05 08:44:49;;;;;;;8.20;2.37;;;3.60;99.90;;;;;;4947708;28;20480;-63
2022/01/05 08:47:17;;;;;;;7.67;2.27;;;3.60;99.90;;;;;;4947126;28;20530;-63
2022/01/05 08:49:45;;;;;;;7.83;1.90;;;3.60;99.90;;;;;;4947388;28;20941;-63
2022/01/05 08:52:13;;;;;;;10.80;2.57;;;3.60;99.90;;;;;;4962976;28;20474;-63
2022/01/05 08:54:41;;;;;;;8.63;1.87;;;3.70;99.90;;;;;;4947230;28;21279;-63
2022/01/05 08:57:10;;;;;;;9.87;2.40;;;3.70;99.90;;;;;;4947581;28;20562;-62
2022/01/05 08:59:38;;;;;;;9.30;1.93;;;3.70;99.90;;;;;;4947375;28;20488;-63
2022/01/05 09:02:08;;;;;;;8.37;2.07;;;3.70;99.90;;;;;;4947209;28;20472;-63
2022/01/05 09:04:53;;;;;;;8.77;2.14;;;3.70;99.90;;;;;;2873629;28;10002706;-63
2022/01/05 09:07:22;;;;;;;8.97;2.63;;;3.70;99.90;;;;;;3930662;28;10001180;-62
2022/01/05 09:09:50;;;;;;;10.73;2.47;;;3.70;99.90;;;;;;4966597;28;20481;-62
2022/01/05 09:12:18;;;;;;;7.60;1.90;;;3.70;99.90;;;;;;4966266;28;20484;-63
2022/01/05 09:14:46;;;;;;;8.17;2.10;;;3.70;99.90;;;;;;4967343;28;20472;-62
2022/01/05 09:17:16;;;;;;;8.50;2.10;;;3.80;99.90;;;;;;4966748;28;20485;-62
2022/01/05 09:19:44;;;;;;;7.90;2.13;;;3.80;99.90;;;;;;4965255;28;20487;-62
2022/01/05 09:22:12;;;;;;;10.17;2.57;;;3.80;99.90;;;;;;4962681;28;21036;-62
2022/01/05 09:24:50;;;;;;;9.50;2.43;;;3.80;99.90;;;;;;4957265;28;20563;-62
2022/01/05 09:27:18;;;;;;;10.80;2.00;;;3.90;99.90;;;;;;4965436;28;20533;-63
2022/01/05 09:29:47;;;;;;;7.23;2.33;;;3.90;99.90;;;;;;4958704;28;20881;-64
2022/01/05 09:32:17;;;;;;;3.93;2.10;;;3.90;99.90;;;;;;4961988;28;20490;-63
2022/01/05 09:34:45;;;;;;;8.03;2.23;;;3.90;99.90;;;;;;4970401;28;20492;-62
2022/01/05 09:37:20;;;;;;;8.73;2.50;;;3.90;99.90;;;;;;4970233;28;20470;-63
2022/01/05 09:42:36;;;;;;;5.33;1.77;;;3.90;99.90;;;;;;4969326;28;20480;-62
2022/01/05 09:45:19;;;;;;;5.93;2.50;;;4.00;99.90;;;;;;4970436;28;20465;-63
2022/01/05 09:48:11;;;;;;;8.83;2.50;;;4.00;99.90;;;;;;4968576;28;20484;-63
2022/01/05 09:50:45;;;;;;;7.47;2.37;;;3.90;99.90;;;;;;4969575;28;20477;-62
2022/01/05 09:53:15;;;;;;;8.90;2.40;;;4.00;99.90;;;;;;4961933;28;20477;-63
2022/01/05 09:55:43;;;;;;;10.50;2.47;;;4.00;99.90;;;;;;4970126;28;20477;-63
2022/01/05 09:58:12;;;;;;;10.50;2.10;;;4.00;99.90;;;;;;4960634;28;20477;-62
2022/01/05 10:00:41;;;;;;;8.33;2.73;;;4.00;99.90;;;;;;4968886;28;20537;-62
2022/01/05 10:03:14;;;;;;;6.23;2.53;;;4.00;99.90;;;;;;4963971;28;20465;-62
2022/01/05 10:05:43;;;;;;;7.20;2.30;;;4.10;99.90;;;;;;4969356;28;20562;-62
2022/01/05 10:08:12;;;;;;;9.37;2.43;;;4.10;99.90;;;;;;4972123;28;20473;-63
2022/01/05 10:10:42;;;;;;;10.20;2.30;;;4.10;99.90;;;;;;4972592;28;20897;-62
2022/01/05 10:13:11;;;;;;;6.30;2.00;;;4.10;99.90;;;;;;4972564;28;20544;-64
2022/01/05 10:15:39;;;;;;;6.47;2.00;;;4.20;99.90;;;;;;4968473;28;20985;-63
2022/01/05 10:18:13;;;;;;;6.47;2.13;;;4.20;99.90;;;;;;4973563;28;20883;-62
2022/01/05 10:20:58;;;;;;;8.80;2.10;;;4.20;99.90;;;;;;4964690;28;20484;-63
2022/01/05 10:23:34;;;;;;;6.30;2.40;;;4.20;99.90;;;;;;4955830;28;20550;-63
2022/01/05 10:26:18;;;;;;;6.80;1.73;;;4.30;99.90;;;;;;4961353;28;21007;-63
2022/01/05 10:28:46;;;;;;;7.30;2.20;;;4.30;99.90;;;;;;4960127;28;20472;-63
2022/01/05 10:31:17;;;;;;;3.93;1.83;;;4.30;99.90;;;;;;4970308;28;20497;-64
2022/01/05 10:33:47;;;;;;;6.60;1.83;;;4.30;99.90;;;;;;4968242;28;20498;-62
2022/01/05 10:36:15;;;;;;;6.70;2.03;;;4.30;99.90;;;;;;4973670;28;20472;-62
2022/01/05 10:38:57;;;;;;;4.63;1.87;;;4.30;99.90;;;;;;4972765;28;20891;-63
2022/01/05 10:41:28;;;;;;;6.27;2.10;;;4.30;99.90;;;;;;4971968;28;20484;-62
2022/01/05 10:44:15;;;;;;;5.07;2.30;;;4.30;99.90;;;;;;4962351;28;20928;-62
2022/01/05 10:46:46;;;;;;;4.40;2.23;;;4.30;99.90;;;;;;4971787;28;20476;-62
2022/01/05 10:49:28;;;;;;;4.70;1.73;;;4.30;99.90;;;;;;4972066;28;20470;-63
2022/01/05 10:51:58;;;;;;;5.50;1.97;;;4.30;99.90;;;;;;4972406;28;20482;-62
2022/01/05 10:54:28;;;;;;;2.30;1.20;;;4.20;99.90;;;;;;4973713;28;20480;-63
2022/01/05 10:57:08;;;;;;;2.43;1.10;;;4.20;99.90;;;;;;4971779;28;20938;-62
2022/01/05 10:59:39;;;;;;;2.10;1.10;;;4.10;99.90;;;;;;4973685;28;20552;-63
2022/01/05 11:02:29;;;;;;;2.37;1.00;;;4.00;99.90;;;;;;4974773;28;20487;-62
2022/01/05 11:05:16;;;;;;;1.04;0.66;;;4.00;99.90;;;;;;1220606;28;10022746;-63
2022/01/05 11:07:47;;;;;;;1.60;0.70;;;4.00;99.90;;;;;;4959693;28;20769;-62
2022/01/05 11:10:20;;;;;;;1.57;0.90;;;3.90;99.90;;;;;;4961305;28;20488;-62
2022/01/05 11:12:53;;;;;;;1.53;0.70;;;3.90;99.90;;;;;;4952316;28;20858;-62
2022/01/05 11:15:23;;;;;;;1.10;0.60;;;3.90;99.90;;;;;;4961079;28;20479;-62
2022/01/05 11:18:10;;;;;;;0.90;0.70;;;4.00;99.90;;;;;;4969923;28;20476;-62
2022/01/05 11:20:43;;;;;;;0.87;0.60;;;4.00;99.90;;;;;;4971610;28;20475;-62
2022/01/05 11:23:12;;;;;;;1.33;0.87;;;4.00;99.90;;;;;;4973858;28;20465;-62
2022/01/05 11:25:42;;;;;;;0.73;0.50;;;4.10;99.90;;;;;;4973320;28;20486;-62
2022/01/05 11:28:10;;;;;;;1.50;0.67;;;4.10;99.90;;;;;;4973351;28;20891;-62
2022/01/05 11:30:39;;;;;;;1.90;1.27;;;4.10;99.90;;;;;;4970277;28;20458;-62
2022/01/05 11:33:07;;;;;;;1.53;0.70;;;4.10;99.90;;;;;;4970910;28;20873;-62
2022/01/05 11:35:36;;;;;;;0.70;0.50;;;4.20;99.90;;;;;;4971806;28;21067;-62
2022/01/05 11:38:06;;;;;;;1.70;0.60;;;4.20;99.90;;;;;;4970168;28;20476;-62
2022/01/05 11:40:37;;;;;;;1.97;0.90;;;4.10;99.90;;;;;;4973683;28;21004;-62
2022/01/05 11:43:08;;;;;;;1.83;0.70;;;4.20;99.90;;;;;;4972468;28;20615;-62
2022/01/05 11:45:39;;;;;;;2.60;1.10;;;4.30;99.90;;;;;;4953936;28;20514;-63
2022/01/05 11:48:28;;;;;;;2.77;0.80;;;4.20;99.90;;;;;;4962215;28;20467;-62
2022/01/05 11:50:59;;;;;;;1.43;0.80;;;4.20;99.90;;;;;;4970385;28;20513;-62
2022/01/05 11:53:39;;;;;;;1.90;0.80;;;4.10;99.90;;;;;;4972828;28;20632;-62
2022/01/05 11:56:14;;;;;;;5.07;1.17;;;4.10;99.90;;;;;;4972891;28;20470;-63
2022/01/05 11:58:55;;;;;;;2.80;0.90;;;4.10;99.90;;;;;;4973111;28;20473;-63
2022/01/05 12:01:30;;;;;;;2.40;1.00;;;4.00;99.90;;;;;;4971823;28;20480;-62
2022/01/05 12:04:09;;;;;;;1.97;0.70;;;4.00;99.90;;;;;;4971277;28;20485;-63
2022/01/05 12:07:16;;;;;;;2.20;0.90;;;4.10;99.90;;;;;;4970540;28;20866;-62
2022/01/05 12:09:51;;;;;;;1.80;0.70;;;4.10;99.90;;;;;;4971214;28;20472;-64
2022/01/05 12:12:31;;;;;;;2.33;1.50;;;4.20;99.90;;;;;;4970898;28;21027;-63
2022/01/05 12:15:01;;;;;;;2.83;1.00;;;4.20;99.90;;;;;;4977344;28;20476;-63
2022/01/05 12:17:32;;;;;;;2.60;1.00;;;4.20;99.90;;;;;;4972195;28;20894;-63
2022/01/05 12:20:16;;;;;;;3.03;1.10;;;4.20;99.90;;;;;;4972388;28;20469;-62
2022/01/05 12:22:44;;;;;;;2.73;0.80;;;4.20;99.90;;;;;;4971538;28;20481;-63
2022/01/05 12:25:20;;;;;;;5.70;1.10;;;4.20;99.90;;;;;;4967415;28;20461;-62
2022/01/05 12:28:06;;;;;;;4.77;1.47;;;4.20;99.90;;;;;;4971931;28;20893;-63
2022/01/05 12:30:41;;;;;;;2.50;1.10;;;4.30;99.90;;;;;;4969269;28;20506;-63
2022/01/05 12:33:12;;;;;;;4.93;1.33;;;4.30;99.90;;;;;;4972300;28;20871;-62
2022/01/05 12:36:00;;;;;;;6.37;1.57;;;4.40;99.90;;;;;;4972145;28;20820;-62
2022/01/05 12:38:47;;;;;;;4.87;1.20;;;4.40;99.90;;;;;;4971341;28;20474;-63
2022/01/05 12:41:36;;;;;;;5.20;1.50;;;4.40;99.90;;;;;;4969757;28;20492;-63
2022/01/05 12:44:33;;;;;;;5.50;1.10;;;4.40;99.90;;;;;;4970682;28;20533;-62
2022/01/05 12:47:02;;;;;;;3.80;1.10;;;4.50;99.90;;;;;;4970463;28;20485;-63
2022/01/05 12:49:33;;;;;;;5.80;1.40;;;4.50;99.90;;;;;;4971491;28;20841;-63
2022/01/05 12:52:08;;;;;;;6.80;1.70;;;4.40;99.90;;;;;;4971894;28;21002;-63
2022/01/05 12:54:42;;;;;;;7.17;1.40;;;4.50;99.90;;;;;;4966713;28;20463;-63
2022/01/05 12:57:17;;;;;;;7.67;1.00;;;4.50;99.90;;;;;;4964482;28;21007;-62
2022/01/05 12:59:50;;;;;;;7.33;1.30;;;4.50;99.90;;;;;;4963059;28;20476;-62
2022/01/05 13:02:23;;;;;;;6.20;1.40;;;4.50;99.90;;;;;;4970878;28;20987;-63
2022/01/05 13:05:05;;;;;;;1.86;1.04;;;4.60;99.90;;;;;;1616512;28;10022855;-62
2022/01/05 13:07:39;;;;;;;9.73;2.13;;;4.50;99.90;;;;;;4622428;28;10001272;-62
2022/01/05 13:10:10;;;;;;;10.70;1.63;;;4.60;99.90;;;;;;4972031;28;20472;-62
2022/01/05 13:12:40;;;;;;;5.10;1.37;;;4.60;99.90;;;;;;4960921;28;20483;-62